sensor_id;sensor_type;location;lat;lon;timestamp;pressure;altitude;pressure_sealevel;temperature;humidity
21760;BME280;11041;50.854;20.580;2023-04-22T00:01:28;98667.94;;;3.81;78.41
21760;BME280;11041;50.854;20.580;2023-04-22T00:03:55;98646.75;;;3.63;78.31
21760;BME280;11041;50.854;20.580;2023-04-22T00:06:22;98643.78;;;3.59;78.70
21760;BME280;11041;50.854;20.580;2023-04-22T00:08:49;98663.34;;;3.72;78.61
21760;BME280;11041;50.854;20.580;2023-04-22T00:11:15;98646.50;;;3.59;79.13
21760;BME280;11041;50.854;20.580;2023-04-22T00:13:42;98669.31;;;3.69;78.79
21760;BME280;11041;50.854;20.580;2023-04-22T00:16:08;98669.59;;;3.67;79.11
21760;BME280;11041;50.854;20.580;2023-04-22T00:18:35;98634.53;;;3.40;79.41
21760;BME280;11041;50.854;20.580;2023-04-22T00:21:03;98668.78;;;3.56;79.66
21760;BME280;11041;50.854;20.580;2023-04-22T00:23:29;98671.50;;;3.56;79.46
21760;BME280;11041;50.854;20.580;2023-04-22T00:25:56;98664.72;;;3.54;79.57
21760;BME280;11041;50.854;20.580;2023-04-22T00:28:23;98640.22;;;3.33;79.68
21760;BME280;11041;50.854;20.580;2023-04-22T00:30:50;98660.59;;;3.36;79.76
21760;BME280;11041;50.854;20.580;2023-04-22T00:33:16;98634.50;;;3.25;79.81
21760;BME280;11041;50.854;20.580;2023-04-22T00:35:47;98614.13;;;3.07;79.79
21760;BME280;11041;50.854;20.580;2023-04-22T00:38:14;98634.50;;;3.14;80.43
21760;BME280;11041;50.854;20.580;2023-04-22T00:40:40;98647.81;;;3.21;80.37
21760;BME280;11041;50.854;20.580;2023-04-22T00:43:08;98635.31;;;3.10;80.55
21760;BME280;11041;50.854;20.580;2023-04-22T00:45:37;98647.81;;;3.21;80.81
21760;BME280;11041;50.854;20.580;2023-04-22T00:48:04;98617.41;;;3.04;80.75
21760;BME280;11041;50.854;20.580;2023-04-22T00:50:31;98632.03;;;3.03;80.78
21760;BME280;11041;50.854;20.580;2023-04-22T00:52:57;98632.59;;;2.99;80.70
21760;BME280;11041;50.854;20.580;2023-04-22T00:55:24;98646.16;;;3.05;80.83
21760;BME280;11041;50.854;20.580;2023-04-22T00:57:55;98633.13;;;2.96;81.14
21760;BME280;11041;50.854;20.580;2023-04-22T01:00:23;98653.50;;;3.09;81.17
21760;BME280;11041;50.854;20.580;2023-04-22T01:02:53;98648.06;;;3.04;81.47
21760;BME280;11041;50.854;20.580;2023-04-22T01:05:20;98633.13;;;2.96;81.13
21760;BME280;11041;50.854;20.580;2023-04-22T01:07:47;98615.72;;;2.82;81.19
21760;BME280;11041;50.854;20.580;2023-04-22T01:10:13;98640.47;;;2.96;81.19
21760;BME280;11041;50.854;20.580;2023-04-22T01:12:40;98628.50;;;2.87;81.37
21760;BME280;11041;50.854;20.580;2023-04-22T01:15:07;98657.56;;;2.91;81.55
21760;BME280;11041;50.854;20.580;2023-04-22T01:17:35;98620.28;;;2.71;81.74
21760;BME280;11041;50.854;20.580;2023-04-22T01:20:02;98626.56;;;2.72;82.00
21760;BME280;11041;50.854;20.580;2023-04-22T01:22:40;98649.34;;;2.81;82.69
21760;BME280;11041;50.854;20.580;2023-04-22T01:25:10;98634.66;;;2.67;83.21
21760;BME280;11041;50.854;20.580;2023-04-22T01:27:39;98642.56;;;2.73;83.13
21760;BME280;11041;50.854;20.580;2023-04-22T01:30:07;98645.56;;;2.72;82.93
21760;BME280;11041;50.854;20.580;2023-04-22T01:32:35;98626.50;;;2.62;83.09
21760;BME280;11041;50.854;20.580;2023-04-22T01:35:01;98637.13;;;2.73;83.15
21760;BME280;11041;50.854;20.580;2023-04-22T01:37:28;98644.22;;;2.74;83.37
21760;BME280;11041;50.854;20.580;2023-04-22T01:39:57;98628.94;;;2.58;83.18
21760;BME280;11041;50.854;20.580;2023-04-22T01:42:24;98620.78;;;2.53;82.85
21760;BME280;11041;50.854;20.580;2023-04-22T01:44:51;98649.31;;;2.66;83.69
21760;BME280;11041;50.854;20.580;2023-04-22T01:47:18;98638.41;;;2.50;83.56
21760;BME280;11041;50.854;20.580;2023-04-22T01:49:44;98614.50;;;2.37;83.43
21760;BME280;11041;50.854;20.580;2023-04-22T01:52:11;98646.28;;;2.52;84.08
21760;BME280;11041;50.854;20.580;2023-04-22T01:54:38;98621.81;;;2.37;84.46
21760;BME280;11041;50.854;20.580;2023-04-22T01:57:11;98650.06;;;2.51;84.46
21760;BME280;11041;50.854;20.580;2023-04-22T01:59:40;98646.50;;;2.45;84.32
21760;BME280;11041;50.854;20.580;2023-04-22T02:02:06;98623.72;;;2.36;84.17
21760;BME280;11041;50.854;20.580;2023-04-22T02:04:33;98616.63;;;2.30;84.13
21760;BME280;11041;50.854;20.580;2023-04-22T02:06:59;98618.81;;;2.33;83.83
21760;BME280;11041;50.854;20.580;2023-04-22T02:09:26;98622.34;;;2.33;83.78
21760;BME280;11041;50.854;20.580;2023-04-22T02:11:52;98638.66;;;2.49;83.91
21760;BME280;11041;50.854;20.580;2023-04-22T02:14:19;98625.88;;;2.34;83.66
21760;BME280;11041;50.854;20.580;2023-04-22T02:16:45;98645.69;;;2.45;83.70
21760;BME280;11041;50.854;20.580;2023-04-22T02:19:12;98622.59;;;2.32;83.78
21760;BME280;11041;50.854;20.580;2023-04-22T02:21:39;98631.84;;;2.31;84.17
21760;BME280;11041;50.854;20.580;2023-04-22T02:24:05;98635.59;;;2.30;84.53
21760;BME280;11041;50.854;20.580;2023-04-22T02:26:32;98617.06;;;2.11;84.50
21760;BME280;11041;50.854;20.580;2023-04-22T02:28:58;98636.38;;;2.25;84.79
21760;BME280;11041;50.854;20.580;2023-04-22T02:31:25;98621.66;;;2.06;84.88
21760;BME280;11041;50.854;20.580;2023-04-22T02:33:51;98629.81;;;2.11;85.78
21760;BME280;11041;50.854;20.580;2023-04-22T02:36:18;98634.66;;;2.04;86.04
21760;BME280;11041;50.854;20.580;2023-04-22T02:38:45;98609.63;;;1.86;86.04
21760;BME280;11041;50.854;20.580;2023-04-22T02:41:12;98631.94;;;2.04;86.34
21760;BME280;11041;50.854;20.580;2023-04-22T02:43:38;98635.72;;;1.98;86.18
21760;BME280;11041;50.854;20.580;2023-04-22T02:46:07;98644.41;;;2.00;86.19
21760;BME280;11041;50.854;20.580;2023-04-22T02:48:38;98607.72;;;1.87;86.41
21760;BME280;11041;50.854;20.580;2023-04-22T02:51:05;98598.75;;;1.81;86.41
21760;BME280;11041;50.854;20.580;2023-04-22T02:53:31;98625.47;;;2.05;86.47
21760;BME280;11041;50.854;20.580;2023-04-22T02:55:58;98615.09;;;1.97;86.43
21760;BME280;11041;50.854;20.580;2023-04-22T02:58:24;98608.31;;;1.94;85.86
21760;BME280;11041;50.854;20.580;2023-04-22T03:00:52;98592.03;;;1.89;85.50
21760;BME280;11041;50.854;20.580;2023-04-22T03:03:18;98617.31;;;2.00;85.08
21760;BME280;11041;50.854;20.580;2023-04-22T03:05:45;98611.31;;;1.92;84.83
21760;BME280;11041;50.854;20.580;2023-04-22T03:08:11;98610.47;;;1.92;84.72
21760;BME280;11041;50.854;20.580;2023-04-22T03:10:38;98610.19;;;1.88;84.77
21760;BME280;11041;50.854;20.580;2023-04-22T03:13:04;98628.94;;;1.95;84.75
21760;BME280;11041;50.854;20.580;2023-04-22T03:15:31;98617.19;;;1.84;84.72
21760;BME280;11041;50.854;20.580;2023-04-22T03:17:57;98630.28;;;1.92;85.48
21760;BME280;11041;50.854;20.580;2023-04-22T03:20:23;98639.72;;;1.90;85.49
21760;BME280;11041;50.854;20.580;2023-04-22T03:22:50;98626.97;;;1.85;85.52
21760;BME280;11041;50.854;20.580;2023-04-22T03:25:16;98628.53;;;1.76;85.75
21760;BME280;11041;50.854;20.580;2023-04-22T03:27:43;98622.56;;;1.74;86.27
21760;BME280;11041;50.854;20.580;2023-04-22T03:30:10;98620.88;;;1.68;86.37
21760;BME280;11041;50.854;20.580;2023-04-22T03:32:36;98624.34;;;1.63;86.78
21760;BME280;11041;50.854;20.580;2023-04-22T03:35:03;98646.63;;;1.70;87.22
21760;BME280;11041;50.854;20.580;2023-04-22T03:37:30;98623.28;;;1.59;87.38
21760;BME280;11041;50.854;20.580;2023-04-22T03:39:56;98651.78;;;1.72;87.71
21760;BME280;11041;50.854;20.580;2023-04-22T03:42:23;98641.47;;;1.69;87.85
21760;BME280;11041;50.854;20.580;2023-04-22T03:44:49;98635.19;;;1.63;87.87
21760;BME280;11041;50.854;20.580;2023-04-22T03:47:16;98641.72;;;1.67;87.89
21760;BME280;11041;50.854;20.580;2023-04-22T03:49:42;98651.25;;;1.75;87.75
21760;BME280;11041;50.854;20.580;2023-04-22T03:52:09;98633.81;;;1.61;87.44
21760;BME280;11041;50.854;20.580;2023-04-22T03:54:36;98664.81;;;1.75;87.33
21760;BME280;11041;50.854;20.580;2023-04-22T03:57:02;98639.25;;;1.61;87.89
21760;BME280;11041;50.854;20.580;2023-04-22T03:59:29;98659.91;;;1.72;87.86
21760;BME280;11041;50.854;20.580;2023-04-22T04:01:55;98636.28;;;1.62;88.32
21760;BME280;11041;50.854;20.580;2023-04-22T04:04:22;98640.41;;;1.70;88.21
21760;BME280;11041;50.854;20.580;2023-04-22T04:06:48;98638.81;;;1.74;88.22
21760;BME280;11041;50.854;20.580;2023-04-22T04:09:15;98657.38;;;1.92;88.30
21760;BME280;11041;50.854;20.580;2023-04-22T04:11:41;98645.41;;;1.88;87.86
21760;BME280;11041;50.854;20.580;2023-04-22T04:14:08;98665.84;;;2.06;87.48
21760;BME280;11041;50.854;20.580;2023-04-22T04:16:34;98670.75;;;2.09;87.23
21760;BME280;11041;50.854;20.580;2023-04-22T04:19:04;98673.72;;;2.08;87.35
21760;BME280;11041;50.854;20.580;2023-04-22T04:21:31;98668.06;;;2.15;87.30
21760;BME280;11041;50.854;20.580;2023-04-22T04:23:59;98661.56;;;2.16;87.37
21760;BME280;11041;50.854;20.580;2023-04-22T04:26:25;98657.22;;;2.15;87.31
21760;BME280;11041;50.854;20.580;2023-04-22T04:28:55;98644.22;;;2.17;87.35
21760;BME280;11041;50.854;20.580;2023-04-22T04:31:22;98675.25;;;2.36;87.31
21760;BME280;11041;50.854;20.580;2023-04-22T04:33:50;98655.16;;;2.32;87.50
21760;BME280;11041;50.854;20.580;2023-04-22T04:36:17;98679.63;;;2.52;87.31
21760;BME280;11041;50.854;20.580;2023-04-22T04:38:44;98677.22;;;2.56;87.36
21760;BME280;11041;50.854;20.580;2023-04-22T04:41:12;98680.50;;;2.58;87.26
21760;BME280;11041;50.854;20.580;2023-04-22T04:43:39;98680.84;;;2.77;87.53
21760;BME280;11041;50.854;20.580;2023-04-22T04:46:05;98680.56;;;2.84;87.41
21760;BME280;11041;50.854;20.580;2023-04-22T04:48:33;98675.19;;;2.89;87.82
21760;BME280;11041;50.854;20.580;2023-04-22T04:51:01;98642.06;;;2.82;87.54
21760;BME280;11041;50.854;20.580;2023-04-22T04:53:29;98680.66;;;3.14;87.56
21760;BME280;11041;50.854;20.580;2023-04-22T04:55:56;98679.59;;;3.26;87.78
21760;BME280;11041;50.854;20.580;2023-04-22T04:58:22;98653.50;;;3.19;87.93
21760;BME280;11041;50.854;20.580;2023-04-22T05:00:49;98666.84;;;3.41;87.80
21760;BME280;11041;50.854;20.580;2023-04-22T05:03:15;98652.19;;;3.42;87.48
21760;BME280;11041;50.854;20.580;2023-04-22T05:05:42;98651.13;;;3.54;87.36
21760;BME280;11041;50.854;20.580;2023-04-22T05:08:08;98656.81;;;3.68;87.11
21760;BME280;11041;50.854;20.580;2023-04-22T05:10:35;98683.16;;;3.93;87.47
21760;BME280;11041;50.854;20.580;2023-04-22T05:13:01;98654.91;;;3.89;87.26
21760;BME280;11041;50.854;20.580;2023-04-22T05:15:28;98670.63;;;4.12;87.36
21760;BME280;11041;50.854;20.580;2023-04-22T05:17:56;98651.34;;;4.14;86.84
21760;BME280;11041;50.854;20.580;2023-04-22T05:20:23;98662.72;;;4.31;86.11
21760;BME280;11041;50.854;20.580;2023-04-22T05:22:49;98672.72;;;4.46;86.29
21760;BME280;11041;50.854;20.580;2023-04-22T05:25:16;98677.84;;;4.58;85.56
21760;BME280;11041;50.854;20.580;2023-04-22T05:27:43;98651.22;;;4.55;85.94
21760;BME280;11041;50.854;20.580;2023-04-22T05:30:09;98675.88;;;4.79;85.54
21760;BME280;11041;50.854;20.580;2023-04-22T05:32:47;98669.81;;;4.92;85.42
21760;BME280;11041;50.854;20.580;2023-04-22T05:35:13;98662.41;;;4.98;85.04
21760;BME280;11041;50.854;20.580;2023-04-22T05:37:40;98671.09;;;5.10;84.83
21760;BME280;11041;50.854;20.580;2023-04-22T05:40:07;98672.09;;;5.19;84.83
21760;BME280;11041;50.854;20.580;2023-04-22T05:42:34;98668.22;;;5.30;84.59
21760;BME280;11041;50.854;20.580;2023-04-22T05:45:00;98668.50;;;5.34;84.52
21760;BME280;11041;50.854;20.580;2023-04-22T05:47:27;98673.00;;;5.49;84.43
21760;BME280;11041;50.854;20.580;2023-04-22T05:49:53;98678.38;;;5.59;83.94
21760;BME280;11041;50.854;20.580;2023-04-22T05:52:20;98676.09;;;5.71;84.38
21760;BME280;11041;50.854;20.580;2023-04-22T05:54:46;98681.19;;;5.83;84.09
21760;BME280;11041;50.854;20.580;2023-04-22T05:57:13;98657.13;;;5.90;84.16
21760;BME280;11041;50.854;20.580;2023-04-22T05:59:39;98677.16;;;6.10;84.48
21760;BME280;11041;50.854;20.580;2023-04-22T06:02:06;98665.66;;;6.13;84.31
21760;BME280;11041;50.854;20.580;2023-04-22T06:04:32;98660.06;;;6.28;84.07
21760;BME280;11041;50.854;20.580;2023-04-22T06:06:59;98659.38;;;6.42;83.69
21760;BME280;11041;50.854;20.580;2023-04-22T06:09:25;98666.00;;;6.59;83.67
21760;BME280;11041;50.854;20.580;2023-04-22T06:11:52;98685.31;;;6.87;83.21
21760;BME280;11041;50.854;20.580;2023-04-22T06:14:18;98686.22;;;7.01;83.61
21760;BME280;11041;50.854;20.580;2023-04-22T06:16:45;98664.59;;;7.05;83.48
21760;BME280;11041;50.854;20.580;2023-04-22T06:19:11;98677.38;;;7.29;83.13
21760;BME280;11041;50.854;20.580;2023-04-22T06:21:38;98682.63;;;7.44;82.90
21760;BME280;11041;50.854;20.580;2023-04-22T06:24:05;98650.44;;;7.41;82.21
21760;BME280;11041;50.854;20.580;2023-04-22T06:26:32;98679.94;;;7.77;81.82
21760;BME280;11041;50.854;20.580;2023-04-22T06:29:00;98677.75;;;7.93;81.24
21760;BME280;11041;50.854;20.580;2023-04-22T06:31:28;98674.75;;;8.08;80.28
21760;BME280;11041;50.854;20.580;2023-04-22T06:33:54;98682.75;;;8.37;78.66
21760;BME280;11041;50.854;20.580;2023-04-22T06:36:21;98680.94;;;8.60;75.30
21760;BME280;11041;50.854;20.580;2023-04-22T06:38:47;98660.47;;;8.71;74.65
21760;BME280;11041;50.854;20.580;2023-04-22T06:41:15;98661.34;;;8.94;74.62
21760;BME280;11041;50.854;20.580;2023-04-22T06:43:41;98681.19;;;9.28;72.80
21760;BME280;11041;50.854;20.580;2023-04-22T06:46:09;98671.50;;;9.44;71.78
21760;BME280;11041;50.854;20.580;2023-04-22T06:48:35;98673.56;;;9.61;71.51
21760;BME280;11041;50.854;20.580;2023-04-22T06:51:02;98654.22;;;9.66;71.05
21760;BME280;11041;50.854;20.580;2023-04-22T06:53:28;98650.94;;;9.78;70.85
21760;BME280;11041;50.854;20.580;2023-04-22T06:55:55;98659.09;;;9.92;70.20
21760;BME280;11041;50.854;20.580;2023-04-22T06:58:21;98673.13;;;10.13;69.70
21760;BME280;11041;50.854;20.580;2023-04-22T07:00:48;98670.00;;;10.28;68.51
21760;BME280;11041;50.854;20.580;2023-04-22T07:03:14;98668.28;;;10.41;66.40
21760;BME280;11041;50.854;20.580;2023-04-22T07:05:41;98671.94;;;10.68;65.16
21760;BME280;11041;50.854;20.580;2023-04-22T07:08:07;98673.47;;;10.91;63.58
21760;BME280;11041;50.854;20.580;2023-04-22T07:10:34;98673.69;;;11.12;62.83
21760;BME280;11041;50.854;20.580;2023-04-22T07:13:01;98679.06;;;11.35;61.79
21760;BME280;11041;50.854;20.580;2023-04-22T07:15:27;98674.06;;;11.54;60.04
21760;BME280;11041;50.854;20.580;2023-04-22T07:17:54;98676.00;;;11.80;58.42
21760;BME280;11041;50.854;20.580;2023-04-22T07:20:21;98669.88;;;11.91;58.20
21760;BME280;11041;50.854;20.580;2023-04-22T07:22:47;98666.09;;;12.05;54.61
21760;BME280;11041;50.854;20.580;2023-04-22T07:25:14;98674.81;;;12.33;54.67
21760;BME280;11041;50.854;20.580;2023-04-22T07:27:40;98679.63;;;12.45;53.86
21760;BME280;11041;50.854;20.580;2023-04-22T07:30:11;98677.28;;;12.64;54.60
21760;BME280;11041;50.854;20.580;2023-04-22T07:32:38;98654.44;;;12.64;50.83
21760;BME280;11041;50.854;20.580;2023-04-22T07:35:05;98675.09;;;12.87;50.51
21760;BME280;11041;50.854;20.580;2023-04-22T07:37:32;98680.53;;;12.96;50.37
21760;BME280;11041;50.854;20.580;2023-04-22T07:39:59;98662.50;;;12.98;51.41
21760;BME280;11041;50.854;20.580;2023-04-22T07:42:25;98668.41;;;13.18;47.88
21760;BME280;11041;50.854;20.580;2023-04-22T07:44:52;98675.34;;;13.33;47.81
21760;BME280;11041;50.854;20.580;2023-04-22T07:47:19;98656.50;;;13.26;48.14
21760;BME280;11041;50.854;20.580;2023-04-22T07:49:45;98654.06;;;13.33;46.00
21760;BME280;11041;50.854;20.580;2023-04-22T07:52:12;98658.31;;;13.52;45.28
21760;BME280;11041;50.854;20.580;2023-04-22T07:54:38;98673.56;;;13.70;43.79
21760;BME280;11041;50.854;20.580;2023-04-22T07:57:05;98654.28;;;13.82;43.40
21760;BME280;11041;50.854;20.580;2023-04-22T07:59:31;98659.31;;;14.01;42.27
21760;BME280;11041;50.854;20.580;2023-04-22T08:01:58;98674.69;;;14.23;41.34
21760;BME280;11041;50.854;20.580;2023-04-22T08:04:24;98649.75;;;14.32;40.46
21760;BME280;11041;50.854;20.580;2023-04-22T08:06:51;98652.16;;;14.34;41.01
21760;BME280;11041;50.854;20.580;2023-04-22T08:09:17;98652.84;;;14.43;40.36
21760;BME280;11041;50.854;20.580;2023-04-22T08:11:44;98656.81;;;14.54;40.37
21760;BME280;11041;50.854;20.580;2023-04-22T08:14:10;98665.94;;;14.67;41.38
21760;BME280;11041;50.854;20.580;2023-04-22T08:16:38;98657.31;;;14.68;41.07
21760;BME280;11041;50.854;20.580;2023-04-22T08:19:05;98662.13;;;14.72;40.86
21760;BME280;11041;50.854;20.580;2023-04-22T08:21:31;98665.25;;;14.82;41.56
21760;BME280;11041;50.854;20.580;2023-04-22T08:23:58;98656.59;;;14.84;41.01
21760;BME280;11041;50.854;20.580;2023-04-22T08:26:24;98640.13;;;14.87;40.63
21760;BME280;11041;50.854;20.580;2023-04-22T08:28:51;98636.78;;;14.94;39.03
21760;BME280;11041;50.854;20.580;2023-04-22T08:31:18;98647.63;;;14.99;37.93
21760;BME280;11041;50.854;20.580;2023-04-22T08:33:45;98653.25;;;15.15;37.54
21760;BME280;11041;50.854;20.580;2023-04-22T08:36:12;98657.63;;;15.28;37.11
21760;BME280;11041;50.854;20.580;2023-04-22T08:38:38;98630.75;;;15.17;37.67
21760;BME280;11041;50.854;20.580;2023-04-22T08:41:05;98633.31;;;15.09;38.42
21760;BME280;11041;50.854;20.580;2023-04-22T08:43:33;98639.88;;;15.17;38.22
21760;BME280;11041;50.854;20.580;2023-04-22T08:45:59;98643.78;;;15.28;38.51
21760;BME280;11041;50.854;20.580;2023-04-22T08:48:27;98648.34;;;15.37;37.88
21760;BME280;11041;50.854;20.580;2023-04-22T08:50:53;98610.47;;;15.12;37.86
21760;BME280;11041;50.854;20.580;2023-04-22T08:53:20;98649.38;;;15.57;37.85
21760;BME280;11041;50.854;20.580;2023-04-22T08:55:48;98626.41;;;15.44;38.17
21760;BME280;11041;50.854;20.580;2023-04-22T08:58:16;98655.13;;;15.64;37.79
21760;BME280;11041;50.854;20.580;2023-04-22T09:00:43;98627.66;;;15.71;37.41
21760;BME280;11041;50.854;20.580;2023-04-22T09:03:11;98651.34;;;15.84;36.57
21760;BME280;11041;50.854;20.580;2023-04-22T09:05:40;98624.41;;;15.69;38.26
21760;BME280;11041;50.854;20.580;2023-04-22T09:08:09;98649.31;;;15.69;37.92
21760;BME280;11041;50.854;20.580;2023-04-22T09:10:37;98643.66;;;15.65;37.57
21760;BME280;11041;50.854;20.580;2023-04-22T09:13:06;98624.13;;;15.46;37.74
21760;BME280;11041;50.854;20.580;2023-04-22T09:15:32;98625.41;;;15.36;37.50
21760;BME280;11041;50.854;20.580;2023-04-22T09:18:02;98615.63;;;15.26;37.61
21760;BME280;11041;50.854;20.580;2023-04-22T09:20:30;98643.66;;;15.37;38.58
21760;BME280;11041;50.854;20.580;2023-04-22T09:23:02;98632.25;;;15.26;40.54
21760;BME280;11041;50.854;20.580;2023-04-22T09:25:33;98636.19;;;15.25;41.31
21760;BME280;11041;50.854;20.580;2023-04-22T09:28:02;98631.72;;;15.08;39.19
21760;BME280;11041;50.854;20.580;2023-04-22T09:30:33;98631.00;;;15.11;39.14
21760;BME280;11041;50.854;20.580;2023-04-22T09:33:03;98635.84;;;15.15;37.93
21760;BME280;11041;50.854;20.580;2023-04-22T09:35:33;98613.34;;;15.16;38.21
21760;BME280;11041;50.854;20.580;2023-04-22T09:38:03;98630.03;;;15.32;38.56
21760;BME280;11041;50.854;20.580;2023-04-22T09:40:33;98623.22;;;15.42;37.75
21760;BME280;11041;50.854;20.580;2023-04-22T09:43:04;98623.38;;;15.61;38.54
21760;BME280;11041;50.854;20.580;2023-04-22T09:45:41;98608.97;;;15.55;39.13
21760;BME280;11041;50.854;20.580;2023-04-22T09:48:12;98622.69;;;15.64;37.68
21760;BME280;11041;50.854;20.580;2023-04-22T09:50:42;98620.97;;;15.60;37.29
21760;BME280;11041;50.854;20.580;2023-04-22T09:53:14;98615.63;;;15.67;38.21
21760;BME280;11041;50.854;20.580;2023-04-22T09:55:53;98607.56;;;15.62;37.83
21760;BME280;11041;50.854;20.580;2023-04-22T09:58:21;98599.84;;;15.55;37.15
21760;BME280;11041;50.854;20.580;2023-04-22T10:00:55;98590.94;;;15.62;38.17
21760;BME280;11041;50.854;20.580;2023-04-22T10:03:22;98605.31;;;15.80;37.64
21760;BME280;11041;50.854;20.580;2023-04-22T10:05:49;98601.03;;;15.82;37.77
21760;BME280;11041;50.854;20.580;2023-04-22T10:08:16;98598.84;;;15.88;38.47
21760;BME280;11041;50.854;20.580;2023-04-22T10:10:43;98613.69;;;15.95;38.95
21760;BME280;11041;50.854;20.580;2023-04-22T10:13:10;98604.31;;;16.00;36.45
21760;BME280;11041;50.854;20.580;2023-04-22T10:15:44;98597.50;;;16.13;35.25
21760;BME280;11041;50.854;20.580;2023-04-22T10:18:22;98602.25;;;16.13;36.95
21760;BME280;11041;50.854;20.580;2023-04-22T10:20:51;98597.25;;;16.03;36.78
21760;BME280;11041;50.854;20.580;2023-04-22T10:23:22;98606.22;;;16.12;37.16
21760;BME280;11041;50.854;20.580;2023-04-22T10:25:53;98594.94;;;16.05;37.10
21760;BME280;11041;50.854;20.580;2023-04-22T10:28:23;98595.38;;;16.07;38.23
21760;BME280;11041;50.854;20.580;2023-04-22T10:30:50;98595.91;;;16.12;38.21
21760;BME280;11041;50.854;20.580;2023-04-22T10:41:34;98571.50;;;16.50;35.40
21760;BME280;11041;50.854;20.580;2023-04-22T10:44:06;98575.84;;;16.67;36.92
21760;BME280;11041;50.854;20.580;2023-04-22T10:49:06;98562.72;;;16.79;37.38
21760;BME280;11041;50.854;20.580;2023-04-22T10:51:52;98585.13;;;17.06;36.64
21760;BME280;11041;50.854;20.580;2023-04-22T10:59:54;98561.41;;;17.28;36.15
21760;BME280;11041;50.854;20.580;2023-04-22T11:02:22;98566.63;;;17.49;34.35
21760;BME280;11041;50.854;20.580;2023-04-22T11:04:50;98559.97;;;17.54;34.73
21760;BME280;11041;50.854;20.580;2023-04-22T11:15:29;98550.81;;;17.92;35.78
21760;BME280;11041;50.854;20.580;2023-04-22T11:17:57;98564.28;;;18.13;33.91
21760;BME280;11041;50.854;20.580;2023-04-22T11:20:23;98553.22;;;18.17;31.82
21760;BME280;11041;50.854;20.580;2023-04-22T11:22:53;98533.38;;;17.95;31.26
21760;BME280;11041;50.854;20.580;2023-04-22T11:25:22;98537.03;;;17.99;32.72
21760;BME280;11041;50.854;20.580;2023-04-22T11:27:49;98546.72;;;17.86;32.83
21760;BME280;11041;50.854;20.580;2023-04-22T11:30:21;98555.44;;;18.07;32.97
21760;BME280;11041;50.854;20.580;2023-04-22T11:50:04;98529.47;;;17.18;32.20
21760;BME280;11041;50.854;20.580;2023-04-22T11:53:27;98531.75;;;17.13;32.65
21760;BME280;11041;50.854;20.580;2023-04-22T12:01:01;98486.09;;;17.10;33.62
21760;BME280;11041;50.854;20.580;2023-04-22T12:03:58;98538.91;;;17.33;32.98
21760;BME280;11041;50.854;20.580;2023-04-22T12:14:34;98498.63;;;17.04;32.09
21760;BME280;11041;50.854;20.580;2023-04-22T12:18:15;98515.44;;;17.11;32.21
21760;BME280;11041;50.854;20.580;2023-04-22T12:20:57;98517.03;;;17.12;32.57
21760;BME280;11041;50.854;20.580;2023-04-22T12:27:18;98535.31;;;17.52;33.69
21760;BME280;11041;50.854;20.580;2023-04-22T12:29:57;98507.25;;;17.38;34.11
21760;BME280;11041;50.854;20.580;2023-04-22T12:32:28;98494.78;;;17.28;32.67
21760;BME280;11041;50.854;20.580;2023-04-22T12:34:54;98512.47;;;17.39;32.50
21760;BME280;11041;50.854;20.580;2023-04-22T12:37:21;98514.78;;;17.37;33.80
21760;BME280;11041;50.854;20.580;2023-04-22T12:39:47;98526.34;;;17.39;36.12
21760;BME280;11041;50.854;20.580;2023-04-22T12:42:14;98525.44;;;17.55;35.70
21760;BME280;11041;50.854;20.580;2023-04-22T12:44:40;98511.56;;;17.55;36.16
21760;BME280;11041;50.854;20.580;2023-04-22T12:47:07;98509.78;;;17.66;34.88
21760;BME280;11041;50.854;20.580;2023-04-22T12:49:35;98499.91;;;17.88;35.47
21760;BME280;11041;50.854;20.580;2023-04-22T12:52:07;98510.31;;;18.18;33.78
21760;BME280;11041;50.854;20.580;2023-04-22T12:54:43;98492.94;;;18.47;32.72
21760;BME280;11041;50.854;20.580;2023-04-22T12:57:55;98460.56;;;18.62;33.08
21760;BME280;11041;50.854;20.580;2023-04-22T13:00:29;98472.75;;;19.11;32.07
21760;BME280;11041;50.854;20.580;2023-04-22T13:03:30;98491.00;;;19.72;31.56
21760;BME280;11041;50.854;20.580;2023-04-22T13:06:27;98464.00;;;19.84;30.73
21760;BME280;11041;50.854;20.580;2023-04-22T13:08:54;98464.72;;;20.21;31.20
21760;BME280;11041;50.854;20.580;2023-04-22T13:11:29;98456.09;;;20.41;29.83
21760;BME280;11041;50.854;20.580;2023-04-22T13:13:56;98475.75;;;20.55;26.89
21760;BME280;11041;50.854;20.580;2023-04-22T13:16:29;98475.03;;;20.66;28.73
21760;BME280;11041;50.854;20.580;2023-04-22T13:23:06;98465.31;;;20.45;28.17
21760;BME280;11041;50.854;20.580;2023-04-22T13:25:43;98427.78;;;20.39;29.59
21760;BME280;11041;50.854;20.580;2023-04-22T13:28:26;98460.88;;;20.40;28.78
21760;BME280;11041;50.854;20.580;2023-04-22T13:30:56;98424.19;;;19.83;29.20
21760;BME280;11041;50.854;20.580;2023-04-22T13:33:24;98442.63;;;19.57;28.72
21760;BME280;11041;50.854;20.580;2023-04-22T13:35:56;98424.47;;;19.00;28.96
21760;BME280;11041;50.854;20.580;2023-04-22T13:38:31;98441.06;;;18.62;29.34
21760;BME280;11041;50.854;20.580;2023-04-22T13:41:04;98426.00;;;18.37;29.93
21760;BME280;11041;50.854;20.580;2023-04-22T13:43:55;98438.03;;;18.18;30.86
21760;BME280;11041;50.854;20.580;2023-04-22T13:46:33;98440.56;;;18.03;31.48
21760;BME280;11041;50.854;20.580;2023-04-22T13:49:10;98422.38;;;17.83;31.47
21760;BME280;11041;50.854;20.580;2023-04-22T13:52:43;98441.72;;;17.79;31.70
21760;BME280;11041;50.854;20.580;2023-04-22T13:55:55;98470.13;;;17.88;32.87
21760;BME280;11041;50.854;20.580;2023-04-22T13:58:21;98456.75;;;17.75;31.25
21760;BME280;11041;50.854;20.580;2023-04-22T14:01:13;98422.31;;;17.56;31.71
21760;BME280;11041;50.854;20.580;2023-04-22T14:04:05;98410.31;;;17.52;31.66
21760;BME280;11041;50.854;20.580;2023-04-22T14:10:37;98477.19;;;17.82;30.81
21760;BME280;11041;50.854;20.580;2023-04-22T14:13:20;98437.28;;;17.52;31.94